Time;durP1;ratioP1;P1;durP2;ratioP2;P2;SDS_P1;SDS_P2;PMS_P1;PMS_P2;Temp;Humidity;BMP_temperature;BMP_pressure;BME280_temperature;BME280_humidity;BME280_pressure;Samples;Min_cycle;Max_cycle;Signal;HPM_P1;HPM_P2
2022/06/23 05:00:05;;;;;;;10.83;5.20;;;20.60;97.20;;;;;;1722682;28;20239;-74
2022/06/23 05:00:56;;;;;;;9.18;5.32;;;20.60;97.20;;;;;;1721148;28;20228;-75
2022/06/23 05:01:49;;;;;;;9.93;5.10;;;20.60;97.20;;;;;;1722349;28;20237;-75
2022/06/23 05:02:46;;;;;;;6.28;4.72;;;20.70;97.20;;;;;;1727284;28;20447;-74
2022/06/23 05:03:47;;;;;;;8.63;5.50;;;20.70;97.20;;;;;;1727341;28;20206;-74
2022/06/23 05:04:40;;;;;;;9.77;5.15;;;20.70;97.20;;;;;;1727398;28;20204;-75
2022/06/23 05:05:35;;;;;;;9.90;5.13;;;20.70;97.20;;;;;;1727261;28;20203;-74
2022/06/23 05:06:34;;;;;;;10.50;6.10;;;20.70;97.20;;;;;;1727265;28;20205;-74
2022/06/23 05:07:32;;;;;;;11.30;6.45;;;20.70;97.20;;;;;;1727310;28;20351;-75
2022/06/23 05:08:26;;;;;;;11.68;5.70;;;20.70;97.20;;;;;;1727250;28;20686;-74
2022/06/23 05:09:23;;;;;;;9.23;5.90;;;20.70;97.20;;;;;;1727281;28;20576;-74
2022/06/23 05:10:18;;;;;;;10.13;5.63;;;20.70;97.20;;;;;;1727354;28;20581;-74
2022/06/23 05:11:15;;;;;;;10.93;5.93;;;20.80;97.20;;;;;;1727387;28;20196;-74
2022/06/23 05:12:18;;;;;;;10.25;6.32;;;20.80;97.20;;;;;;1727355;28;20675;-75
2022/06/23 05:13:16;;;;;;;12.82;6.68;;;20.80;97.20;;;;;;1727335;28;20200;-75
2022/06/23 05:14:22;;;;;;;9.63;6.32;;;20.80;97.20;;;;;;1727040;28;20563;-74
2022/06/23 05:15:19;;;;;;;10.20;6.82;;;20.80;97.20;;;;;;1725868;28;20192;-74
2022/06/23 05:16:13;;;;;;;9.95;5.90;;;20.80;97.20;;;;;;1727308;28;20200;-74
2022/06/23 05:17:13;;;;;;;10.70;6.05;;;20.80;97.20;;;;;;1727027;28;20201;-74
2022/06/23 05:18:14;;;;;;;10.55;6.57;;;20.80;97.20;;;;;;1727147;28;20205;-74
2022/06/23 05:19:09;;;;;;;11.30;5.88;;;20.80;97.20;;;;;;1727278;28;20201;-74
2022/06/23 05:20:04;;;;;;;12.13;7.15;;;20.80;97.20;;;;;;1726426;28;20196;-75
2022/06/23 05:20:58;;;;;;;16.15;6.78;;;20.80;97.20;;;;;;1727089;28;20217;-74
2022/06/23 05:21:54;;;;;;;7.82;5.47;;;20.90;97.20;;;;;;1727122;28;20739;-74
2022/06/23 05:22:46;;;;;;;14.63;7.07;;;20.90;97.20;;;;;;1727000;28;20205;-74
2022/06/23 05:23:43;;;;;;;10.40;6.20;;;20.90;97.20;;;;;;1723795;28;20243;-73
2022/06/23 05:24:37;;;;;;;13.48;6.75;;;20.90;97.20;;;;;;1727403;28;20201;-73
2022/06/23 05:25:36;;;;;;;12.10;6.65;;;20.90;97.20;;;;;;1720469;28;20205;-73
2022/06/23 05:26:32;;;;;;;9.25;6.13;;;20.90;97.20;;;;;;1720506;28;20217;-73
2022/06/23 05:27:28;;;;;;;13.57;7.43;;;20.90;97.20;;;;;;1720539;28;20201;-73
2022/06/23 05:28:24;;;;;;;15.15;7.20;;;21.00;97.20;;;;;;1720473;28;20212;-72
2022/06/23 05:29:20;;;;;;;12.23;6.28;;;20.90;97.20;;;;;;1725427;28;20247;-73
2022/06/23 05:30:25;;;;;;;9.95;6.50;;;20.90;97.20;;;;;;1727206;28;20201;-72
2022/06/23 05:31:23;;;;;;;11.68;6.10;;;20.90;97.20;;;;;;1721895;28;20209;-73
2022/06/23 05:32:19;;;;;;;12.95;5.75;;;20.90;97.20;;;;;;1721835;28;20209;-73
2022/06/23 05:33:16;;;;;;;9.60;5.40;;;21.00;97.20;;;;;;1719926;28;20193;-73
2022/06/23 05:34:12;;;;;;;12.90;6.65;;;21.00;97.20;;;;;;1721881;28;20224;-72
2022/06/23 05:35:08;;;;;;;7.63;5.93;;;21.00;97.20;;;;;;1727036;28;20193;-73
2022/06/23 05:36:03;;;;;;;12.02;6.65;;;21.00;97.20;;;;;;1727155;28;20719;-72
2022/06/23 05:37:02;;;;;;;9.70;6.35;;;21.00;97.20;;;;;;1728159;28;20730;-72
2022/06/23 05:37:58;;;;;;;12.55;6.07;;;21.00;97.20;;;;;;1727493;28;20196;-71
2022/06/23 05:38:55;;;;;;;13.82;5.68;;;21.00;97.20;;;;;;1728477;28;20208;-72
2022/06/23 05:39:51;;;;;;;12.48;5.72;;;21.00;97.20;;;;;;1728570;28;20216;-72
2022/06/23 05:40:53;;;;;;;10.63;5.90;;;21.00;97.20;;;;;;1728223;28;20216;-72
2022/06/23 05:41:47;;;;;;;11.73;5.85;;;21.00;97.20;;;;;;1728390;28;20201;-72
2022/06/23 05:42:43;;;;;;;10.73;6.20;;;21.00;97.20;;;;;;1728492;28;20200;-72
2022/06/23 05:43:41;;;;;;;11.43;6.03;;;21.00;97.20;;;;;;1728440;28;20204;-72
2022/06/23 05:44:42;;;;;;;10.27;5.75;;;21.00;97.20;;;;;;1728455;28;20193;-72
2022/06/23 05:45:41;;;;;;;11.18;5.95;;;21.00;97.20;;;;;;1727757;28;20224;-74
2022/06/23 05:46:36;;;;;;;13.90;6.38;;;21.00;97.20;;;;;;1724668;28;20288;-73
2022/06/23 05:47:31;;;;;;;8.15;5.10;;;21.00;97.20;;;;;;1721686;28;20209;-72
2022/06/23 05:48:25;;;;;;;12.85;6.60;;;21.00;97.20;;;;;;1721561;28;20205;-72
2022/06/23 05:49:20;;;;;;;7.90;5.35;;;21.00;97.20;;;;;;1721657;28;20626;-73
2022/06/23 05:50:18;;;;;;;8.90;5.50;;;21.00;97.20;;;;;;1722110;28;20201;-73
2022/06/23 05:51:16;;;;;;;11.70;5.70;;;21.00;97.20;;;;;;1728319;28;20211;-72
2022/06/23 05:52:14;;;;;;;6.68;5.32;;;21.00;97.20;;;;;;1728453;28;20203;-75
2022/06/23 05:53:11;;;;;;;9.45;4.82;;;21.10;97.20;;;;;;1728490;28;20209;-74
2022/06/23 05:54:10;;;;;;;7.82;5.45;;;21.10;97.20;;;;;;1728459;28;20218;-72
2022/06/23 05:55:04;;;;;;;11.95;5.05;;;21.10;97.20;;;;;;1728304;28;20224;-73
2022/06/23 05:56:02;;;;;;;10.30;5.30;;;21.10;97.20;;;;;;1727895;28;20196;-72
2022/06/23 05:56:59;;;;;;;7.97;4.97;;;21.20;97.20;;;;;;1724069;28;20201;-73
2022/06/23 05:57:54;;;;;;;8.13;5.05;;;21.20;97.20;;;;;;1728454;28;20197;-73
2022/06/23 05:58:54;;;;;;;7.55;4.97;;;21.20;97.20;;;;;;1728386;28;20247;-73
2022/06/23 05:59:58;;;;;;;9.63;5.20;;;21.30;97.20;;;;;;1728493;28;20563;-73
2022/06/23 06:00:55;;;;;;;9.57;5.10;;;21.30;97.20;;;;;;1728248;28;20228;-73
2022/06/23 06:01:56;;;;;;;11.18;5.82;;;21.30;97.20;;;;;;1728368;28;20339;-73
2022/06/23 06:02:52;;;;;;;11.50;5.35;;;21.30;97.20;;;;;;1728361;28;20208;-73
2022/06/23 06:03:51;;;;;;;9.93;5.15;;;21.40;97.20;;;;;;1727918;28;20204;-73
2022/06/23 06:04:46;;;;;;;12.68;4.30;;;21.40;97.20;;;;;;1728332;28;20204;-73
2022/06/23 06:05:39;;;;;;;8.55;5.15;;;21.40;97.20;;;;;;1728241;28;20232;-75
2022/06/23 06:06:32;;;;;;;8.80;5.90;;;21.40;97.20;;;;;;1728286;28;20216;-72
2022/06/23 06:07:28;;;;;;;9.90;5.15;;;21.40;97.20;;;;;;1728226;28;20196;-73
2022/06/23 06:08:23;;;;;;;8.55;5.38;;;21.40;97.20;;;;;;1728195;28;20571;-73
2022/06/23 06:09:36;;;;;;;12.02;5.30;;;21.40;97.20;;;;;;1728271;28;20544;-73
2022/06/23 06:10:29;;;;;;;12.32;6.20;;;21.40;97.20;;;;;;1728138;28;20201;-73
2022/06/23 06:11:21;;;;;;;8.88;5.18;;;21.40;97.20;;;;;;1728202;28;20201;-72
2022/06/23 06:12:14;;;;;;;17.58;6.55;;;21.50;97.20;;;;;;1728381;28;20201;-72
2022/06/23 06:13:14;;;;;;;14.60;5.68;;;21.50;97.20;;;;;;1728354;28;20200;-72
2022/06/23 06:14:05;;;;;;;10.43;5.90;;;21.50;97.20;;;;;;1723395;28;20544;-73
2022/06/23 06:15:01;;;;;;;10.80;5.30;;;21.50;97.20;;;;;;1721410;28;20673;-73
2022/06/23 06:15:57;;;;;;;12.90;6.28;;;21.50;97.20;;;;;;1721511;28;20201;-72
2022/06/23 06:16:49;;;;;;;12.65;6.07;;;21.50;97.20;;;;;;1724516;28;20197;-76
2022/06/23 06:17:41;;;;;;;11.05;6.00;;;21.50;97.20;;;;;;1728244;28;20212;-73
2022/06/23 06:18:36;;;;;;;12.52;5.90;;;21.50;97.20;;;;;;1726598;28;20206;-73
2022/06/23 06:19:31;;;;;;;8.48;5.07;;;21.50;97.20;;;;;;1722802;28;20687;-73
2022/06/23 06:20:26;;;;;;;9.25;6.03;;;21.50;97.20;;;;;;1721511;28;20251;-73
2022/06/23 06:21:19;;;;;;;10.57;5.47;;;21.50;97.20;;;;;;1728257;28;20208;-73
2022/06/23 06:22:22;;;;;;;9.45;5.80;;;21.50;97.20;;;;;;1728177;28;20200;-73
2022/06/23 06:23:17;;;;;;;9.07;5.40;;;21.50;97.20;;;;;;1728179;28;20212;-72
2022/06/23 06:24:17;;;;;;;6.03;4.65;;;21.50;97.20;;;;;;1724016;28;20193;-72
2022/06/23 06:25:17;;;;;;;9.43;5.32;;;21.50;97.20;;;;;;1728185;28;20197;-72
2022/06/23 06:26:12;;;;;;;10.52;5.85;;;21.50;97.20;;;;;;1728114;28;20275;-72
2022/06/23 06:27:07;;;;;;;10.88;5.50;;;21.50;97.20;;;;;;1727890;28;20201;-72
2022/06/23 06:28:17;;;;;;;9.90;5.55;;;21.50;97.20;;;;;;1721854;28;20197;-72
2022/06/23 06:29:14;;;;;;;8.52;5.00;;;21.50;97.20;;;;;;1721543;28;20278;-72
2022/06/23 06:30:12;;;;;;;7.88;4.80;;;21.50;97.20;;;;;;1722509;28;20252;-72
2022/06/23 06:31:12;;;;;;;9.15;4.82;;;21.60;97.20;;;;;;1722577;28;20581;-71
2022/06/23 06:32:16;;;;;;;9.93;5.40;;;21.60;97.20;;;;;;1728086;28;20201;-72
2022/06/23 06:33:20;;;;;;;7.65;5.03;;;21.60;97.20;;;;;;1728279;28;20197;-72
2022/06/23 06:34:17;;;;;;;12.32;4.85;;;21.60;97.20;;;;;;1724021;28;20784;-72
2022/06/23 06:35:18;;;;;;;7.30;4.88;;;21.60;97.20;;;;;;1721245;28;20235;-72
2022/06/23 06:36:31;;;;;;;8.63;5.50;;;21.70;97.20;;;;;;1725182;28;20201;-72
2022/06/23 06:37:27;;;;;;;8.05;5.45;;;21.70;97.20;;;;;;1728041;28;20201;-72
2022/06/23 06:38:19;;;;;;;13.07;6.25;;;21.60;97.20;;;;;;1728009;28;20649;-72
2022/06/23 06:39:14;;;;;;;8.90;4.63;;;21.70;97.20;;;;;;1727928;28;20296;-72
2022/06/23 06:40:08;;;;;;;7.57;5.22;;;21.70;97.20;;;;;;1722708;28;20200;-72
2022/06/23 06:40:59;;;;;;;10.80;6.05;;;21.70;97.20;;;;;;1722069;28;20220;-73
2022/06/23 06:41:55;;;;;;;9.85;5.60;;;21.70;97.20;;;;;;1727481;28;20280;-72
2022/06/23 06:42:51;;;;;;;13.25;6.22;;;21.70;97.20;;;;;;1725555;28;20201;-73
2022/06/23 06:43:43;;;;;;;9.95;5.40;;;21.70;97.20;;;;;;1725255;28;20224;-73
2022/06/23 06:44:36;;;;;;;6.78;5.60;;;21.70;97.20;;;;;;1723781;28;20204;-73
2022/06/23 06:45:33;;;;;;;10.38;5.25;;;21.70;97.20;;;;;;1726065;28;20264;-72
2022/06/23 06:46:25;;;;;;;12.75;6.03;;;21.70;97.20;;;;;;1723672;28;20213;-74
2022/06/23 06:47:19;;;;;;;8.25;5.03;;;21.80;97.20;;;;;;1720810;28;20292;-74
2022/06/23 06:48:18;;;;;;;7.72;5.00;;;21.80;97.20;;;;;;1720170;28;20198;-74
2022/06/23 06:49:15;;;;;;;9.48;5.35;;;21.80;97.20;;;;;;1721285;28;20205;-76
2022/06/23 06:50:19;;;;;;;8.40;4.30;;;21.80;97.20;;;;;;1721278;28;20204;-75
2022/06/23 06:51:17;;;;;;;13.15;5.20;;;21.80;97.20;;;;;;1721399;28;20285;-75
2022/06/23 06:52:08;;;;;;;8.50;4.78;;;21.80;97.20;;;;;;1721314;28;20202;-75
2022/06/23 06:53:06;;;;;;;9.60;5.00;;;21.80;97.20;;;;;;1721283;28;20279;-74
2022/06/23 06:54:00;;;;;;;9.15;6.07;;;21.90;97.20;;;;;;1724253;28;20519;-75
2022/06/23 06:54:57;;;;;;;9.65;5.57;;;21.90;97.20;;;;;;1731474;28;20199;-75
2022/06/23 06:55:53;;;;;;;13.55;5.30;;;21.90;97.20;;;;;;1721585;28;20669;-74
2022/06/23 06:56:47;;;;;;;7.85;5.15;;;21.90;97.20;;;;;;1727359;28;20714;-74
2022/06/23 06:57:43;;;;;;;11.80;5.80;;;21.90;97.20;;;;;;1727630;28;20258;-75
2022/06/23 06:58:41;;;;;;;9.25;5.18;;;22.00;97.20;;;;;;1727995;28;20684;-73
2022/06/23 06:59:39;;;;;;;10.95;5.78;;;22.00;97.20;;;;;;1727968;28;20212;-74
2022/06/23 07:00:37;;;;;;;7.35;4.18;;;22.00;97.20;;;;;;1724496;28;20254;-74
2022/06/23 07:01:33;;;;;;;9.95;5.38;;;22.00;97.20;;;;;;1721272;28;20209;-73
2022/06/23 07:02:33;;;;;;;9.43;4.93;;;22.00;97.20;;;;;;1727928;28;20715;-73
2022/06/23 07:03:25;;;;;;;8.73;4.35;;;22.00;97.20;;;;;;1727928;28;20232;-73
2022/06/23 07:04:22;;;;;;;6.53;4.28;;;22.10;97.20;;;;;;1731578;28;20215;-74
2022/06/23 07:05:22;;;;;;;9.18;4.72;;;22.00;97.20;;;;;;1734747;28;20766;-73
2022/06/23 07:06:18;;;;;;;10.18;4.68;;;22.10;97.20;;;;;;1734701;28;20749;-73
2022/06/23 07:07:17;;;;;;;6.95;4.90;;;22.10;97.20;;;;;;1734460;28;20258;-73
2022/06/23 07:08:15;;;;;;;8.55;4.35;;;22.10;97.20;;;;;;1734683;28;20200;-73
2022/06/23 07:09:11;;;;;;;9.73;5.25;;;22.10;97.20;;;;;;1734729;28;20196;-73
2022/06/23 07:10:09;;;;;;;6.25;4.50;;;22.10;97.20;;;;;;1734673;28;20222;-73
2022/06/23 07:11:08;;;;;;;7.72;4.32;;;22.20;97.20;;;;;;1734665;28;20647;-73
2022/06/23 07:12:06;;;;;;;7.25;5.25;;;22.20;97.20;;;;;;1734669;28;20192;-73
2022/06/23 07:13:02;;;;;;;9.43;4.35;;;22.20;97.20;;;;;;1734667;28;20223;-73
2022/06/23 07:13:58;;;;;;;9.13;5.20;;;22.20;97.20;;;;;;1733797;28;20284;-73
2022/06/23 07:14:57;;;;;;;7.47;4.30;;;22.30;97.20;;;;;;1727888;28;20208;-73
2022/06/23 07:15:52;;;;;;;4.88;4.25;;;22.30;97.20;;;;;;1727475;28;20204;-73
2022/06/23 07:16:52;;;;;;;9.80;5.45;;;22.30;97.20;;;;;;1727613;28;20205;-73
2022/06/23 07:17:46;;;;;;;13.02;4.97;;;22.30;97.20;;;;;;1727865;28;20201;-73
2022/06/23 07:18:43;;;;;;;10.13;4.55;;;22.40;97.20;;;;;;1727834;28;20204;-73
2022/06/23 07:19:37;;;;;;;7.50;4.40;;;22.40;97.20;;;;;;1727886;28;20341;-73
2022/06/23 07:20:37;;;;;;;8.10;4.18;;;22.40;97.20;;;;;;1727564;28;20223;-73
2022/06/23 07:21:34;;;;;;;7.28;3.80;;;22.40;97.20;;;;;;1727770;28;20209;-73
2022/06/23 07:22:31;;;;;;;9.25;4.40;;;22.50;97.20;;;;;;1727820;28;20201;-73
2022/06/23 07:23:26;;;;;;;10.27;4.45;;;22.50;97.20;;;;;;1727821;28;20200;-74
2022/06/23 07:24:25;;;;;;;9.27;3.92;;;22.50;97.20;;;;;;1731117;28;20322;-74
2022/06/23 07:25:20;;;;;;;11.05;4.55;;;22.60;97.20;;;;;;1721020;28;20201;-74
2022/06/23 07:26:23;;;;;;;8.32;4.45;;;22.60;97.20;;;;;;1721046;28;20201;-73
2022/06/23 07:27:21;;;;;;;7.47;3.90;;;22.60;97.20;;;;;;1720832;28;20661;-73
2022/06/23 07:28:17;;;;;;;9.05;4.53;;;22.60;97.20;;;;;;1721954;28;20201;-74
2022/06/23 07:29:18;;;;;;;10.80;5.05;;;22.60;97.20;;;;;;1727892;28;20576;-74
2022/06/23 07:30:15;;;;;;;9.82;4.10;;;22.60;97.20;;;;;;1724812;28;21317;-73
2022/06/23 07:31:10;;;;;;;11.48;4.25;;;22.70;97.20;;;;;;1721040;28;20201;-73
2022/06/23 07:32:12;;;;;;;7.38;4.57;;;22.70;97.20;;;;;;1721010;28;20649;-73
2022/06/23 07:33:12;;;;;;;7.32;4.00;;;22.70;97.20;;;;;;1721075;28;20209;-73
2022/06/23 07:34:08;;;;;;;9.50;4.32;;;22.80;97.20;;;;;;1724615;28;20201;-72
2022/06/23 07:35:06;;;;;;;11.38;4.82;;;22.80;97.20;;;;;;1734583;28;20651;-73
2022/06/23 07:36:04;;;;;;;9.45;4.88;;;22.80;97.20;;;;;;1721994;28;20275;-74
2022/06/23 07:36:57;;;;;;;6.55;4.00;;;22.90;97.20;;;;;;1727257;28;20675;-77
2022/06/23 07:38:00;;;;;;;6.95;4.15;;;22.90;97.20;;;;;;1724423;28;20219;-73
2022/06/23 07:38:57;;;;;;;8.13;4.15;;;22.90;97.20;;;;;;1726913;28;20266;-74
2022/06/23 07:39:54;;;;;;;7.63;3.90;;;23.00;97.20;;;;;;1727047;28;20280;-74
2022/06/23 07:41:02;;;;;;;7.32;3.80;;;23.00;97.20;;;;;;1728315;28;20227;-74
2022/06/23 07:41:59;;;;;;;5.93;3.40;;;23.00;97.20;;;;;;1727328;28;20205;-74
2022/06/23 07:43:02;;;;;;;6.88;3.60;;;23.10;97.20;;;;;;1727181;28;20207;-74
2022/06/23 07:43:58;;;;;;;9.38;3.58;;;23.10;97.20;;;;;;1727182;28;20208;-74
2022/06/23 07:44:57;;;;;;;8.27;4.32;;;23.10;97.20;;;;;;1725797;28;20563;-74
2022/06/23 07:45:54;;;;;;;10.25;4.07;;;23.10;97.20;;;;;;1725108;28;20200;-74
2022/06/23 07:46:45;;;;;;;7.43;3.50;;;23.20;97.20;;;;;;1720559;28;20256;-74
2022/06/23 07:47:38;;;;;;;6.03;3.20;;;23.20;97.20;;;;;;1725955;28;20208;-74
2022/06/23 07:48:34;;;;;;;7.63;3.78;;;23.20;97.20;;;;;;1727559;28;20208;-74
2022/06/23 07:49:25;;;;;;;5.10;4.07;;;23.20;97.20;;;;;;1726597;28;20231;-74
2022/06/23 07:50:17;;;;;;;10.02;4.10;;;23.20;97.20;;;;;;1723322;28;20663;-75
2022/06/23 07:51:10;;;;;;;7.68;4.15;;;23.20;97.20;;;;;;1722325;28;20652;-74
2022/06/23 07:52:04;;;;;;;8.27;3.85;;;23.20;97.20;;;;;;1723255;28;20287;-74
2022/06/23 07:52:56;;;;;;;7.82;3.60;;;23.30;97.20;;;;;;1728372;28;20205;-80
2022/06/23 07:53:50;;;;;;;9.57;3.70;;;23.30;97.20;;;;;;1726979;28;20195;-74
2022/06/23 07:54:42;;;;;;;8.77;3.90;;;23.30;97.20;;;;;;1730078;28;20541;-75
2022/06/23 07:55:40;;;;;;;8.65;4.57;;;23.30;97.20;;;;;;1724541;28;20205;-75
2022/06/23 07:56:32;;;;;;;7.20;4.40;;;23.30;97.20;;;;;;1726709;28;20197;-74
2022/06/23 07:57:27;;;;;;;9.20;4.07;;;23.40;97.20;;;;;;1727006;28;20231;-74
2022/06/23 07:58:24;;;;;;;9.35;4.10;;;23.40;97.20;;;;;;1726374;28;20208;-74
2022/06/23 07:59:21;;;;;;;7.00;3.95;;;23.40;97.20;;;;;;1726410;28;20264;-74
2022/06/23 08:00:15;;;;;;;6.50;3.90;;;23.40;97.20;;;;;;1725853;28;20180;-74
2022/06/23 08:01:13;;;;;;;11.48;4.10;;;23.40;97.20;;;;;;1726676;28;20553;-74
2022/06/23 08:02:10;;;;;;;6.97;4.00;;;23.50;97.20;;;;;;1725053;28;20200;-74
2022/06/23 08:03:09;;;;;;;9.52;4.57;;;23.50;97.20;;;;;;1725286;28;20311;-74
2022/06/23 08:04:06;;;;;;;4.70;3.65;;;23.50;97.20;;;;;;1726153;28;20231;-75
2022/06/23 08:05:03;;;;;;;6.88;3.53;;;23.60;97.20;;;;;;1724341;28;20193;-75
2022/06/23 08:06:01;;;;;;;8.70;3.67;;;23.60;97.20;;;;;;1727012;28;20193;-75
2022/06/23 08:06:54;;;;;;;6.22;3.72;;;23.70;97.20;;;;;;1726794;28;20201;-76
2022/06/23 08:07:46;;;;;;;8.30;3.60;;;23.70;97.20;;;;;;1726847;28;20648;-75
2022/06/23 08:08:40;;;;;;;6.80;3.97;;;23.70;97.20;;;;;;1727419;28;20196;-75
2022/06/23 08:09:36;;;;;;;14.02;4.55;;;23.80;97.20;;;;;;1727370;28;20211;-75
2022/06/23 08:10:31;;;;;;;8.02;5.15;;;23.80;97.20;;;;;;1728346;28;20201;-75
2022/06/23 08:12:53;;;;;;;8.60;4.63;;;23.80;97.20;;;;;;1725438;28;20258;-75
2022/06/23 08:13:49;;;;;;;6.80;3.97;;;23.90;97.20;;;;;;1727747;28;20205;-75
2022/06/23 08:14:47;;;;;;;10.25;4.65;;;23.90;97.20;;;;;;1726780;28;20549;-74
2022/06/23 08:16:51;;;;;;;10.18;4.30;;;23.90;97.20;;;;;;1724968;28;20604;-74
2022/06/23 08:17:48;;;;;;;9.60;4.20;;;23.90;97.20;;;;;;1726819;28;20196;-78
2022/06/23 08:18:46;;;;;;;11.13;3.50;;;23.90;97.20;;;;;;1726886;28;20215;-75
2022/06/23 08:19:41;;;;;;;6.85;4.30;;;24.00;97.20;;;;;;1726913;28;20211;-74
2022/06/23 08:20:37;;;;;;;6.47;4.78;;;24.00;97.20;;;;;;1727542;28;21822;-74
2022/06/23 08:21:34;;;;;;;10.95;4.95;;;24.00;97.20;;;;;;1724594;28;20292;-74
2022/06/23 08:22:28;;;;;;;7.88;4.20;;;24.00;97.20;;;;;;1726953;28;20201;-75
2022/06/23 08:23:22;;;;;;;9.93;4.40;;;24.00;97.20;;;;;;1727755;28;20219;-74
2022/06/23 08:24:18;;;;;;;8.13;3.70;;;24.00;97.20;;;;;;1726268;28;20636;-74
2022/06/23 08:25:10;;;;;;;7.57;3.33;;;24.00;97.20;;;;;;1725009;28;20692;-74
2022/06/23 08:26:03;;;;;;;5.57;3.30;;;24.00;97.20;;;;;;1726989;28;20232;-75
2022/06/23 08:27:00;;;;;;;8.45;4.00;;;24.00;97.20;;;;;;1724554;28;20644;-75
2022/06/23 08:27:53;;;;;;;5.70;3.13;;;24.00;97.20;;;;;;1726193;28;20193;-75
2022/06/23 08:28:45;;;;;;;5.43;3.78;;;24.00;97.20;;;;;;1726194;28;20189;-74
2022/06/23 08:29:42;;;;;;;13.35;5.22;;;24.10;97.20;;;;;;1726372;28;20299;-75
2022/06/23 08:30:36;;;;;;;12.68;5.95;;;24.10;97.20;;;;;;1726644;28;20228;-74
2022/06/23 08:31:29;;;;;;;6.00;3.40;;;24.10;97.20;;;;;;1726655;28;20196;-74
2022/06/23 08:32:21;;;;;;;6.65;3.53;;;24.10;97.20;;;;;;1726070;28;20200;-74
2022/06/23 08:33:13;;;;;;;5.93;3.35;;;24.20;97.20;;;;;;1724996;28;20246;-74
2022/06/23 08:34:07;;;;;;;6.03;3.58;;;24.20;97.20;;;;;;1723910;28;20208;-74
2022/06/23 08:35:03;;;;;;;6.90;3.88;;;24.20;97.20;;;;;;1726608;28;20201;-74
2022/06/23 08:35:56;;;;;;;10.40;3.47;;;24.20;97.20;;;;;;1726017;28;20259;-74
2022/06/23 08:36:50;;;;;;;7.18;2.97;;;24.20;97.20;;;;;;1726582;28;20262;-74
2022/06/23 08:37:48;;;;;;;7.65;3.70;;;24.20;97.20;;;;;;1723881;28;20203;-74
2022/06/23 08:38:45;;;;;;;5.82;3.40;;;24.20;97.20;;;;;;1726666;28;20900;-74
2022/06/23 08:39:44;;;;;;;11.02;4.00;;;24.20;97.20;;;;;;1726946;28;20200;-74
2022/06/23 08:40:51;;;;;;;5.55;3.05;;;24.20;97.20;;;;;;1724944;28;20220;-72
2022/06/23 08:41:49;;;;;;;8.20;3.10;;;24.20;97.20;;;;;;1723879;28;20196;-73
2022/06/23 08:42:49;;;;;;;5.82;3.35;;;24.20;97.20;;;;;;1720665;28;20201;-73
2022/06/23 08:43:45;;;;;;;5.68;3.05;;;24.10;97.20;;;;;;1726836;28;20571;-73
2022/06/23 08:44:42;;;;;;;6.63;3.42;;;24.20;97.20;;;;;;1726773;28;20262;-73
2022/06/23 08:45:40;;;;;;;8.15;3.83;;;24.20;97.20;;;;;;1726660;28;20216;-73
2022/06/23 08:46:37;;;;;;;10.93;4.30;;;24.20;97.20;;;;;;1727388;28;20200;-73
2022/06/23 08:47:38;;;;;;;6.10;3.30;;;24.20;97.20;;;;;;1723088;28;20207;-73
2022/06/23 08:48:36;;;;;;;6.75;3.85;;;24.30;97.20;;;;;;1725590;28;20197;-73
2022/06/23 08:49:35;;;;;;;8.38;4.55;;;24.30;97.20;;;;;;1727335;28;20208;-73
2022/06/23 08:50:35;;;;;;;9.75;5.75;;;24.40;97.20;;;;;;1722850;28;20205;-74
2022/06/23 08:51:36;;;;;;;7.80;4.53;;;24.40;97.20;;;;;;1727388;28;20207;-73
2022/06/23 08:52:35;;;;;;;12.02;3.35;;;24.50;97.20;;;;;;1727345;28;20240;-75
2022/06/23 08:53:33;;;;;;;5.82;3.05;;;24.50;97.20;;;;;;1727465;28;20219;-75
2022/06/23 08:54:31;;;;;;;5.15;3.20;;;24.50;97.20;;;;;;1727336;28;20204;-74
2022/06/23 08:55:27;;;;;;;7.60;4.30;;;24.50;97.20;;;;;;1727346;28;20205;-74
2022/06/23 08:56:24;;;;;;;6.95;3.28;;;24.60;97.20;;;;;;1727391;28;20228;-73
2022/06/23 08:57:21;;;;;;;9.60;4.05;;;24.60;97.20;;;;;;1727138;28;20197;-74
2022/06/23 08:58:18;;;;;;;5.78;3.25;;;24.60;97.20;;;;;;1727343;28;20204;-74
2022/06/23 08:59:18;;;;;;;8.05;3.80;;;24.70;97.20;;;;;;1727355;28;20205;-74
2022/06/23 09:00:16;;;;;;;6.97;3.28;;;24.70;97.20;;;;;;1722451;28;20208;-75
2022/06/23 09:01:13;;;;;;;8.27;3.53;;;24.80;97.20;;;;;;1725361;28;20200;-74
2022/06/23 09:02:11;;;;;;;6.88;3.45;;;24.80;97.20;;;;;;1727241;28;20271;-73
2022/06/23 09:03:10;;;;;;;6.45;3.70;;;24.90;97.20;;;;;;1727307;28;20845;-74
2022/06/23 09:04:09;;;;;;;4.85;3.85;;;24.90;97.20;;;;;;1727350;28;20197;-75
2022/06/23 09:05:09;;;;;;;5.60;3.67;;;25.00;97.20;;;;;;1724991;28;20200;-72
2022/06/23 09:06:08;;;;;;;4.18;2.70;;;25.00;97.20;;;;;;1727287;28;20334;-72
2022/06/23 09:07:08;;;;;;;7.90;3.15;;;25.10;97.20;;;;;;1726140;28;20215;-71
2022/06/23 09:08:04;;;;;;;8.30;2.85;;;25.10;97.20;;;;;;1719983;28;20201;-77
2022/06/23 09:09:06;;;;;;;5.93;3.58;;;25.10;97.20;;;;;;1720509;28;20256;-77
2022/06/23 09:10:08;;;;;;;7.95;2.90;;;25.20;97.20;;;;;;1720132;28;20209;-69
2022/06/23 09:11:12;;;;;;;6.63;3.20;;;25.20;97.20;;;;;;1720394;28;20228;-71
2022/06/23 09:12:12;;;;;;;5.60;3.10;;;25.30;97.20;;;;;;1722055;28;20216;-73
2022/06/23 09:13:12;;;;;;;7.40;2.90;;;25.30;97.20;;;;;;1721617;28;20200;-71
2022/06/23 09:14:23;;;;;;;5.13;2.83;;;25.30;97.20;;;;;;1719848;28;20208;-71
2022/06/23 09:15:40;;;;;;;6.30;3.40;;;25.30;97.20;;;;;;1717761;28;20287;-70
2022/06/23 09:16:43;;;;;;;6.22;3.50;;;25.40;97.20;;;;;;1725693;28;20201;-70
2022/06/23 09:17:56;;;;;;;5.35;2.78;;;25.40;97.20;;;;;;1723590;28;20351;-70
2022/06/23 09:19:28;;;;;;;4.45;2.80;;;25.40;97.20;;;;;;1724236;28;20196;-71
2022/06/23 09:20:34;;;;;;;9.65;4.43;;;25.40;97.20;;;;;;1727222;28;20672;-71
2022/06/23 09:21:35;;;;;;;10.63;4.22;;;25.50;97.20;;;;;;1720931;28;20673;-70
2022/06/23 09:22:57;;;;;;;7.88;3.35;;;25.50;97.20;;;;;;1721028;28;20580;-70
2022/06/23 09:24:14;;;;;;;8.15;3.00;;;25.50;97.20;;;;;;1721657;28;20220;-70
2022/06/23 09:25:15;;;;;;;5.93;3.33;;;25.50;97.20;;;;;;1726847;28;20204;-70
2022/06/23 09:26:19;;;;;;;5.57;2.85;;;25.50;97.20;;;;;;1727151;28;20332;-71
2022/06/23 09:27:15;;;;;;;7.13;4.20;;;25.50;97.20;;;;;;1721271;28;20201;-71
2022/06/23 09:28:17;;;;;;;4.97;3.47;;;25.50;97.20;;;;;;1722532;28;20201;-73
2022/06/23 09:29:20;;;;;;;6.38;3.00;;;25.50;97.20;;;;;;1727552;28;20212;-75
2022/06/23 09:30:19;;;;;;;7.07;2.95;;;25.50;97.20;;;;;;1727995;28;20284;-71
2022/06/23 09:31:19;;;;;;;6.18;2.65;;;25.50;97.20;;;;;;1728350;28;20291;-70
2022/06/23 09:32:24;;;;;;;6.53;2.70;;;25.50;97.20;;;;;;1728138;28;20208;-70
2022/06/23 09:33:28;;;;;;;5.65;2.97;;;25.50;97.20;;;;;;1728577;28;20317;-74
2022/06/23 09:34:35;;;;;;;4.18;2.53;;;25.50;97.20;;;;;;1728227;28;20270;-70
2022/06/23 09:35:47;;;;;;;6.00;3.00;;;25.40;97.20;;;;;;1727569;28;20672;-71
2022/06/23 09:37:06;;;;;;;8.55;3.33;;;25.50;97.20;;;;;;1726777;28;20746;-72
2022/06/23 09:38:30;;;;;;;7.57;3.20;;;25.40;97.20;;;;;;1721155;28;20259;-71
2022/06/23 09:40:02;;;;;;;5.28;3.20;;;25.40;97.20;;;;;;1721542;28;20209;-71
2022/06/23 09:41:04;;;;;;;6.50;3.05;;;25.40;97.20;;;;;;1700701;29;20250;-76
2022/06/23 09:42:23;;;;;;;7.60;2.90;;;25.40;97.20;;;;;;1722394;28;20192;-78
2022/06/23 09:43:52;;;;;;;4.90;3.03;;;25.50;97.20;;;;;;1728880;28;20655;-78
2022/06/23 09:44:59;;;;;;;7.78;2.60;;;25.50;97.20;;;;;;1729652;28;20207;-71
2022/06/23 09:46:04;;;;;;;8.93;2.75;;;25.50;97.20;;;;;;1721501;28;20209;-72
2022/06/23 09:47:10;;;;;;;4.40;2.60;;;25.50;97.20;;;;;;1721223;28;20268;-71
2022/06/23 09:48:24;;;;;;;10.70;3.05;;;25.40;97.20;;;;;;1726242;28;20199;-71
2022/06/23 09:49:34;;;;;;;7.85;3.47;;;25.50;97.20;;;;;;1728141;28;20203;-71
2022/06/23 09:50:46;;;;;;;6.38;3.00;;;25.50;97.20;;;;;;1728054;28;20216;-71
2022/06/23 09:52:17;;;;;;;5.40;2.92;;;25.50;97.20;;;;;;1728326;28;20683;-71
2022/06/23 09:53:28;;;;;;;8.38;3.20;;;25.60;97.20;;;;;;1723804;28;20686;-71
2022/06/23 09:55:02;;;;;;;7.40;3.08;;;25.60;97.20;;;;;;1727524;28;20212;-71
2022/06/23 09:56:24;;;;;;;7.32;3.30;;;25.60;97.20;;;;;;1726836;28;20201;-71
2022/06/23 09:57:40;;;;;;;6.72;3.20;;;25.60;97.20;;;;;;1727427;28;20197;-71
2022/06/23 09:58:50;;;;;;;8.82;3.63;;;25.60;97.20;;;;;;1721021;28;20212;-71
2022/06/23 09:59:57;;;;;;;5.95;2.80;;;25.60;97.20;;;;;;1724931;28;20193;-71
2022/06/23 10:00:58;;;;;;;7.63;3.20;;;25.60;97.20;;;;;;1727935;28;20236;-71
2022/06/23 10:01:57;;;;;;;5.97;3.10;;;25.70;97.20;;;;;;1727964;28;20224;-71
2022/06/23 10:03:04;;;;;;;5.47;2.92;;;25.70;97.20;;;;;;1728265;28;20215;-71
2022/06/23 10:04:14;;;;;;;6.57;3.00;;;25.70;97.20;;;;;;1728307;28;20229;-71
2022/06/23 10:05:18;;;;;;;8.77;3.65;;;25.70;97.20;;;;;;1726458;28;20212;-71
2022/06/23 10:06:52;;;;;;;6.35;3.40;;;25.80;97.20;;;;;;1721379;28;20210;-71
2022/06/23 10:08:04;;;;;;;5.65;3.20;;;25.80;97.20;;;;;;1710753;28;20581;-71